EZS46NT LSGG-LFBD
Flight info
| Callsign | EZS46NT |
|---|---|
| Flight time | N/A |
| Altitude | 33000 |
| Route | DEPUL T544 LSE DCT RUSIT DCT MEBAK DCT BELEP DCT TIS DCT LMG |
| Aircraft | A320/M-SDE3FGHIRWY/LB1 |
Departure
| Time | 2026-05-01 14:56 |
|---|---|
| Airport | Geneva International Airport (LSGG) |
Arrival
| Time | N/A |
|---|---|
| Airport | Bordeaux–Mérignac Airport (LFBD) |
| Time | Latitude | Longitude | Altitude | Speed | Heading |
|---|---|---|---|---|---|
| 2026-05-01 14:38 | 46.23053 | 6.10615 | 1397 ft | 0 kts | 136° |
| 2026-05-01 14:48 | 46.23066 | 6.10595 | 1407 ft | 4 kts | 137° |
| 2026-05-01 14:49 | 46.23111 | 6.10579 | 1405 ft | 3 kts | 223° |
| 2026-05-01 14:49 | 46.23113 | 6.10582 | 1405 ft | 0 kts | 226° |
| 2026-05-01 14:51 | 46.23015 | 6.10437 | 1403 ft | 15 kts | 225° |
| 2026-05-01 14:52 | 46.22992 | 6.10244 | 1406 ft | 14 kts | 320° |
| 2026-05-01 14:52 | 46.23040 | 6.10109 | 1405 ft | 15 kts | 229° |
| 2026-05-01 14:52 | 46.22878 | 6.09871 | 1411 ft | 18 kts | 224° |
| 2026-05-01 14:53 | 46.22789 | 6.09737 | 1413 ft | 21 kts | 226° |
| 2026-05-01 14:53 | 46.22680 | 6.09581 | 1416 ft | 23 kts | 224° |
| 2026-05-01 14:53 | 46.22572 | 6.09408 | 1417 ft | 23 kts | 237° |
| 2026-05-01 14:53 | 46.22566 | 6.09194 | 1421 ft | 21 kts | 316° |
| 2026-05-01 14:54 | 46.22678 | 6.09244 | 1422 ft | 18 kts | 44° |
| 2026-05-01 14:54 | 46.22696 | 6.09269 | 1422 ft | 0 kts | 45° |
| 2026-05-01 14:55 | 46.22795 | 6.09414 | 1421 ft | 55 kts | 45° |
| 2026-05-01 14:55 | 46.23239 | 6.10063 | 1414 ft | 121 kts | 45° |
| 2026-05-01 14:55 | 46.23942 | 6.11092 | 1382 ft | 169 kts | 44° |
| 2026-05-01 14:56 | 46.24767 | 6.12317 | 1975 ft | 169 kts | 48° |
| 2026-05-01 14:56 | 46.25586 | 6.13532 | 2682 ft | 171 kts | 46° |
| 2026-05-01 14:56 | 46.26470 | 6.14818 | 2985 ft | 186 kts | 45° |
| 2026-05-01 14:56 | 46.27431 | 6.16212 | 3218 ft | 211 kts | 45° |
| 2026-05-01 14:57 | 46.28512 | 6.17798 | 3559 ft | 235 kts | 46° |
| 2026-05-01 14:57 | 46.30962 | 6.21501 | 4695 ft | 266 kts | 46° |
| 2026-05-01 14:57 | 46.32322 | 6.23326 | 5542 ft | 269 kts | 31° |
| 2026-05-01 14:58 | 46.34078 | 6.24250 | 6361 ft | 272 kts | 6° |
| 2026-05-01 14:58 | 46.35965 | 6.23996 | 7144 ft | 277 kts | 341° |
| 2026-05-01 14:58 | 46.37639 | 6.22603 | 7889 ft | 281 kts | 315° |
| 2026-05-01 14:58 | 46.38757 | 6.20282 | 8642 ft | 285 kts | 289° |
| 2026-05-01 14:59 | 46.39075 | 6.17462 | 9409 ft | 286 kts | 263° |
| 2026-05-01 14:59 | 46.38517 | 6.14718 | 10193 ft | 286 kts | 238° |
| 2026-05-01 14:59 | 46.37205 | 6.12590 | 10910 ft | 286 kts | 213° |
| 2026-05-01 14:59 | 46.35396 | 6.11250 | 11319 ft | 303 kts | 202° |
| 2026-05-01 15:00 | 46.31272 | 6.08787 | 12160 ft | 331 kts | 201° |
| 2026-05-01 15:00 | 46.29121 | 6.07541 | 12867 ft | 335 kts | 201° |
| 2026-05-01 15:00 | 46.26945 | 6.06275 | 13579 ft | 339 kts | 201° |
| 2026-05-01 15:01 | 46.24750 | 6.04990 | 14266 ft | 343 kts | 201° |
| 2026-05-01 15:01 | 46.22530 | 6.03681 | 14888 ft | 346 kts | 201° |
| 2026-05-01 15:01 | 46.20296 | 6.02355 | 15517 ft | 349 kts | 201° |
| 2026-05-01 15:01 | 46.18088 | 6.00854 | 16131 ft | 353 kts | 210° |
| 2026-05-01 15:02 | 46.16105 | 5.98722 | 16742 ft | 358 kts | 222° |
| 2026-05-01 15:02 | 46.14972 | 5.96983 | 17151 ft | 362 kts | 229° |
| 2026-05-01 15:02 | 46.13033 | 5.92985 | 18021 ft | 365 kts | 233° |
| 2026-05-01 15:02 | 46.11586 | 5.89951 | 18610 ft | 368 kts | 233° |
| 2026-05-01 15:03 | 46.10124 | 5.86907 | 19130 ft | 371 kts | 233° |
| 2026-05-01 15:03 | 46.08646 | 5.83839 | 19665 ft | 374 kts | 233° |
| 2026-05-01 15:03 | 46.07161 | 5.80753 | 20197 ft | 376 kts | 233° |
| 2026-05-01 15:03 | 46.05665 | 5.77646 | 20739 ft | 379 kts | 233° |
| 2026-05-01 15:04 | 46.04175 | 5.74554 | 21278 ft | 382 kts | 233° |
| 2026-05-01 15:04 | 46.02653 | 5.71397 | 21807 ft | 385 kts | 233° |
| 2026-05-01 15:04 | 46.01120 | 5.68222 | 22329 ft | 388 kts | 233° |
| 2026-05-01 15:04 | 45.99578 | 5.65032 | 22856 ft | 390 kts | 233° |
| 2026-05-01 15:05 | 45.98021 | 5.61812 | 23375 ft | 393 kts | 233° |
| 2026-05-01 15:05 | 45.96466 | 5.58572 | 23873 ft | 396 kts | 234° |
| 2026-05-01 15:05 | 45.94949 | 5.55251 | 24279 ft | 398 kts | 236° |
| 2026-05-01 15:05 | 45.93468 | 5.51879 | 24711 ft | 400 kts | 236° |
| 2026-05-01 15:06 | 45.92000 | 5.48479 | 25179 ft | 400 kts | 237° |
| 2026-05-01 15:06 | 45.90533 | 5.45074 | 25579 ft | 402 kts | 237° |
| 2026-05-01 15:06 | 45.89052 | 5.41663 | 25978 ft | 404 kts | 237° |
| 2026-05-01 15:06 | 45.87552 | 5.38241 | 26329 ft | 406 kts | 237° |
| 2026-05-01 15:07 | 45.86038 | 5.34809 | 26702 ft | 408 kts | 237° |
| 2026-05-01 15:07 | 45.84513 | 5.31370 | 27061 ft | 410 kts | 237° |
| 2026-05-01 15:07 | 45.82972 | 5.27909 | 27401 ft | 413 kts | 237° |
| 2026-05-01 15:07 | 45.81423 | 5.24437 | 27755 ft | 415 kts | 237° |
| 2026-05-01 15:08 | 45.79864 | 5.20949 | 28089 ft | 417 kts | 237° |
| 2026-05-01 15:08 | 45.78294 | 5.17434 | 28436 ft | 419 kts | 237° |
| 2026-05-01 15:08 | 45.76721 | 5.13914 | 28765 ft | 421 kts | 238° |
| 2026-05-01 15:08 | 45.75158 | 5.10412 | 29085 ft | 423 kts | 238° |
| 2026-05-01 15:09 | 45.73868 | 5.06641 | 29449 ft | 423 kts | 252° |
| 2026-05-01 15:09 | 45.73261 | 5.02524 | 29788 ft | 424 kts | 261° |
| 2026-05-01 15:09 | 45.72804 | 4.98294 | 30114 ft | 425 kts | 261° |
| 2026-05-01 15:09 | 45.72359 | 4.94105 | 30391 ft | 427 kts | 261° |
| 2026-05-01 15:10 | 45.71911 | 4.89893 | 30646 ft | 428 kts | 261° |
| 2026-05-01 15:10 | 45.71016 | 4.81437 | 31127 ft | 431 kts | 261° |
| 2026-05-01 15:10 | 45.70572 | 4.77247 | 31352 ft | 432 kts | 261° |
| 2026-05-01 15:11 | 45.70113 | 4.72946 | 31633 ft | 432 kts | 261° |
| 2026-05-01 15:11 | 45.69213 | 4.64556 | 32336 ft | 428 kts | 261° |
| 2026-05-01 15:11 | 45.68756 | 4.60350 | 32676 ft | 427 kts | 261° |
| 2026-05-01 15:12 | 45.68295 | 4.56160 | 32979 ft | 426 kts | 261° |
| 2026-05-01 15:12 | 45.67376 | 4.47827 | 33222 ft | 417 kts | 261° |
| 2026-05-01 15:12 | 45.66925 | 4.43752 | 33223 ft | 412 kts | 261° |
| 2026-05-01 15:14 | 45.64696 | 4.23611 | 33220 ft | 410 kts | 260° |
| 2026-05-01 15:14 | 45.63335 | 4.11534 | 33222 ft | 410 kts | 260° |
| 2026-05-01 15:15 | 45.61509 | 3.95446 | 33223 ft | 410 kts | 260° |
| 2026-05-01 15:16 | 45.59650 | 3.79364 | 33227 ft | 411 kts | 259° |
| 2026-05-01 15:18 | 45.57293 | 3.59260 | 33226 ft | 411 kts | 259° |
| 2026-05-01 15:19 | 45.55388 | 3.43169 | 33221 ft | 411 kts | 259° |
| 2026-05-01 15:19 | 45.53951 | 3.31115 | 33218 ft | 411 kts | 259° |
| 2026-05-01 15:20 | 45.52496 | 3.19127 | 33211 ft | 411 kts | 259° |
| 2026-05-01 15:21 | 45.51515 | 3.11111 | 33225 ft | 411 kts | 259° |
| 2026-05-01 15:21 | 45.50529 | 3.03092 | 33224 ft | 411 kts | 259° |
| 2026-05-01 15:22 | 45.49036 | 2.91062 | 33236 ft | 410 kts | 259° |
| 2026-05-01 15:22 | 45.48045 | 2.83058 | 33233 ft | 410 kts | 259° |
| 2026-05-01 15:23 | 45.47043 | 2.75056 | 33232 ft | 410 kts | 258° |
| 2026-05-01 15:23 | 45.46034 | 2.67059 | 33238 ft | 410 kts | 258° |
| 2026-05-01 15:24 | 45.45019 | 2.59066 | 33237 ft | 410 kts | 258° |
| 2026-05-01 15:24 | 45.44000 | 2.51072 | 33230 ft | 410 kts | 258° |
| 2026-05-01 15:25 | 45.42977 | 2.43083 | 33235 ft | 410 kts | 258° |
| 2026-05-01 15:25 | 45.41952 | 2.35151 | 33236 ft | 410 kts | 258° |
| 2026-05-01 15:26 | 45.40911 | 2.27168 | 33224 ft | 410 kts | 258° |
| 2026-05-01 15:26 | 45.39868 | 2.19176 | 33232 ft | 411 kts | 258° |
| 2026-05-01 15:27 | 45.38819 | 2.11186 | 33229 ft | 411 kts | 258° |
| 2026-05-01 15:28 | 45.37236 | 1.99200 | 33228 ft | 411 kts | 258° |
| 2026-05-01 15:28 | 45.36174 | 1.91200 | 33228 ft | 412 kts | 258° |
| 2026-05-01 15:29 | 45.34562 | 1.79191 | 33225 ft | 412 kts | 258° |
| 2026-05-01 15:30 | 45.32578 | 1.64556 | 33215 ft | 411 kts | 257° |
| 2026-05-01 15:31 | 45.30468 | 1.49100 | 31570 ft | 391 kts | 257° |
| 2026-05-01 15:31 | 45.29429 | 1.41569 | 30640 ft | 386 kts | 257° |
| 2026-05-01 15:32 | 45.28401 | 1.34151 | 29656 ft | 380 kts | 257° |
| 2026-05-01 15:32 | 45.27390 | 1.26879 | 28690 ft | 375 kts | 257° |
| 2026-05-01 15:33 | 45.25887 | 1.16108 | 27335 ft | 367 kts | 257° |
| 2026-05-01 15:34 | 45.24395 | 1.05572 | 26016 ft | 359 kts | 257° |